Terminal Aerodrome Forecast
Issued by NWS Newport/Morehead City, NC

Home | Current Version | Previous Version | Graphics & Text | Print | Product List | Glossary On
Versions: 1 2 3 4 5 6 7 8 9 10 11 12 13 14 15 16 17 18 19
922
FTUS42 KMHX 052355
TAFEWN
TAF
KEWN 052355Z 0600/0624 07003KT P6SM SKC
     FM060200 04005KT P6SM SCT050 BKN100
     FM060600 04008KT 5SM -RA SCT015 OVC040
     FM060900 06009KT 3SM -RA BR BKN007 OVC015=

USA.gov is the U.S. government's official web portal to all federal, state and local government web resources and services.